Time;durP1;ratioP1;P1;durP2;ratioP2;P2;SDS_P1;SDS_P2;PMS_P1;PMS_P2;Temp;Humidity;BMP_temperature;BMP_pressure;BME280_temperature;BME280_humidity;BME280_pressure;Samples;Min_cycle;Max_cycle;Signal;HPM_P1;HPM_P2
2023/05/04 00:02:17;;;;;;;;;;;9.20;99.90;;;;;;5069248;28;19928;-62
2023/05/04 00:04:52;;;;;;;;;;;9.20;99.90;;;;;;5058450;28;19929;-62
2023/05/04 00:07:23;;;;;;;;;;;9.20;99.90;;;;;;5065069;28;20343;-62
2023/05/04 00:09:50;;;;;;;;;;;9.20;99.90;;;;;;5041692;28;19925;-62
2023/05/04 00:12:22;;;;;;;;;;;9.20;99.90;;;;;;5062820;28;20385;-62
2023/05/04 00:14:54;;;;;;;;;;;9.20;99.90;;;;;;5065480;28;19928;-62
2023/05/04 00:17:26;;;;;;;;;;;9.10;99.90;;;;;;5057484;28;20462;-62
2023/05/04 00:19:57;;;;;;;;;;;9.10;99.90;;;;;;5056816;28;19931;-62
2023/05/04 00:22:29;;;;;;;;;;;9.00;99.90;;;;;;5067899;28;20392;-62
2023/05/04 00:25:00;;;;;;;;;;;9.00;99.90;;;;;;5069208;28;20355;-62
2023/05/04 00:27:33;;;;;;;;;;;9.00;99.90;;;;;;5060799;28;19936;-62
2023/05/04 00:30:06;;;;;;;;;;;8.90;99.90;;;;;;5058670;28;19925;-62
2023/05/04 00:32:37;;;;;;;;;;;8.90;99.90;;;;;;5039381;28;19925;-62
2023/05/04 00:35:09;;;;;;;;;;;8.80;99.90;;;;;;5044660;28;19925;-62
2023/05/04 00:37:42;;;;;;;;;;;8.80;99.90;;;;;;5045194;28;19925;-62
2023/05/04 00:40:14;;;;;;;;;;;8.70;99.90;;;;;;5041294;28;20324;-62
2023/05/04 00:42:46;;;;;;;;;;;8.70;99.90;;;;;;5040009;28;19924;-62
2023/05/04 00:45:14;;;;;;;;;;;8.70;99.90;;;;;;5038224;28;19963;-62
2023/05/04 00:47:47;;;;;;;;;;;8.60;99.90;;;;;;5069848;28;19928;-62
2023/05/04 00:50:19;;;;;;;;;;;8.60;99.90;;;;;;5070663;28;19932;-62
2023/05/04 00:52:54;;;;;;;;;;;8.50;99.90;;;;;;5061636;28;19925;-62
2023/05/04 00:55:26;;;;;;;;;;;8.50;99.90;;;;;;5029550;28;19925;-62
2023/05/04 00:57:57;;;;;;;;;;;8.50;99.90;;;;;;5029896;28;20435;-61
2023/05/04 01:00:29;;;;;;;;;;;8.40;99.90;;;;;;5036683;28;19955;-62
2023/05/04 01:03:00;;;;;;;;;;;8.40;99.90;;;;;;5054445;28;19931;-64
2023/05/04 01:05:35;;;;;;;;;;;8.40;99.90;;;;;;5038627;28;19978;-64
2023/05/04 01:08:09;;;;;;;;;;;8.30;99.90;;;;;;5050576;28;19974;-62
2023/05/04 01:10:48;;;;;;;;;;;8.30;99.90;;;;;;5051953;28;20487;-64
2023/05/04 01:13:16;;;;;;;;;;;8.30;99.90;;;;;;5055277;28;19925;-64
2023/05/04 01:15:48;;;;;;;;;;;8.30;99.90;;;;;;5048738;28;19935;-64
2023/05/04 01:18:22;;;;;;;;;;;8.30;99.90;;;;;;5042879;28;19968;-62
2023/05/04 01:20:53;;;;;;;;;;;8.20;99.90;;;;;;5048629;28;19924;-62
2023/05/04 01:23:26;;;;;;;;;;;8.20;99.90;;;;;;5048067;28;19925;-62
2023/05/04 01:26:00;;;;;;;;;;;8.20;99.90;;;;;;5023527;28;19936;-62
2023/05/04 01:28:49;;;;;;;;;;;8.20;99.90;;;;;;5038877;28;19929;-62
2023/05/04 01:31:17;;;;;;;;;;;8.20;99.90;;;;;;5066396;28;19929;-63
2023/05/04 01:33:45;;;;;;;;;;;8.20;99.90;;;;;;5072048;28;19929;-63
2023/05/04 01:36:12;;;;;;;;;;;8.20;99.90;;;;;;5055248;28;19929;-62
2023/05/04 01:38:46;;;;;;;;;;;8.20;99.90;;;;;;5039086;28;19931;-62
2023/05/04 01:41:17;;;;;;;;;;;8.10;99.90;;;;;;5053935;28;19929;-63
2023/05/04 01:43:49;;;;;;;;;;;8.10;99.90;;;;;;5054145;28;19925;-62
2023/05/04 01:46:21;;;;;;;;;;;8.10;99.90;;;;;;5044446;28;19925;-62
2023/05/04 01:48:52;;;;;;;;;;;8.00;99.90;;;;;;5062656;28;19929;-62
2023/05/04 01:51:21;;;;;;;;;;;8.00;99.90;;;;;;5055244;28;19928;-63
2023/05/04 01:53:53;;;;;;;;;;;8.00;99.90;;;;;;5068967;28;19933;-62
2023/05/04 01:56:24;;;;;;;;;;;7.90;99.90;;;;;;5055563;28;19924;-62
2023/05/04 01:58:56;;;;;;;;;;;7.90;99.90;;;;;;5047585;28;20316;-62
2023/05/04 02:01:28;;;;;;;;;;;7.90;99.90;;;;;;5019987;28;19925;-62
2023/05/04 02:03:54;;;;;;;;;;;7.80;99.90;;;;;;5042276;28;19932;-62
2023/05/04 02:06:26;;;;;;;;;;;7.80;99.90;;;;;;5026363;28;19925;-64
2023/05/04 02:08:58;;;;;;;;;;;7.80;99.90;;;;;;5048138;28;19951;-62
2023/05/04 02:11:30;;;;;;;;;;;7.70;99.90;;;;;;5052312;28;19925;-62
2023/05/04 02:14:03;;;;;;;;;;;7.70;99.90;;;;;;5056303;28;19974;-62
2023/05/04 02:16:34;;;;;;;;;;;7.70;99.90;;;;;;5059301;28;19982;-63
2023/05/04 02:19:06;;;;;;;;;;;7.60;99.90;;;;;;5036324;28;19932;-63
2023/05/04 02:21:39;;;;;;;;;;;7.60;99.90;;;;;;5036099;28;19931;-63
2023/05/04 02:24:11;;;;;;;;;;;7.60;99.90;;;;;;5054197;28;19929;-63
2023/05/04 02:26:42;;;;;;;;;;;7.60;99.90;;;;;;5036240;28;19994;-63
2023/05/04 02:29:14;;;;;;;;;;;7.60;99.90;;;;;;5052384;28;19924;-63
2023/05/04 02:31:46;;;;;;;;;;;7.60;99.90;;;;;;5053135;28;19947;-63
2023/05/04 02:34:18;;;;;;;;;;;7.50;99.90;;;;;;5066976;28;20385;-63
2023/05/04 02:36:50;;;;;;;;;;;7.50;99.90;;;;;;5053970;28;19925;-63
2023/05/04 02:39:21;;;;;;;;;;;7.50;99.90;;;;;;5054208;28;20355;-63
2023/05/04 02:41:53;;;;;;;;;;;7.50;99.90;;;;;;5038750;28;19928;-63
2023/05/04 02:44:19;;;;;;;;;;;7.40;99.90;;;;;;5034464;28;20370;-63
2023/05/04 02:46:51;;;;;;;;;;;7.40;99.90;;;;;;5046385;28;19929;-63
2023/05/04 02:49:23;;;;;;;;;;;7.40;99.90;;;;;;5041296;28;19924;-63
2023/05/04 02:51:55;;;;;;;;;;;7.40;99.90;;;;;;5058335;28;19929;-63
2023/05/04 02:54:26;;;;;;;;;;;7.40;99.90;;;;;;5045552;28;19955;-63
2023/05/04 02:56:58;;;;;;;;;;;7.30;99.90;;;;;;5048289;28;19932;-63
2023/05/04 02:59:30;;;;;;;;;;;7.30;99.90;;;;;;5047466;28;19925;-63
2023/05/04 03:02:01;;;;;;;;;;;7.20;99.90;;;;;;5031734;28;19925;-63
2023/05/04 03:04:33;;;;;;;;;;;7.20;99.90;;;;;;5045553;28;20569;-63
2023/05/04 03:07:05;;;;;;;;;;;7.10;99.90;;;;;;5048184;28;19978;-63
2023/05/04 03:09:37;;;;;;;;;;;7.10;99.90;;;;;;5052434;28;20396;-63
2023/05/04 03:12:08;;;;;;;;;;;7.10;99.90;;;;;;5052478;28;19924;-63
2023/05/04 03:14:41;;;;;;;;;;;7.10;99.90;;;;;;5045075;28;19925;-63
2023/05/04 03:17:07;;;;;;;;;;;7.10;99.90;;;;;;5043480;28;19925;-63
2023/05/04 03:19:40;;;;;;;;;;;7.10;99.90;;;;;;5051020;28;19932;-63
2023/05/04 03:22:12;;;;;;;;;;;7.00;99.90;;;;;;5054176;28;19972;-63
2023/05/04 03:24:43;;;;;;;;;;;7.00;99.90;;;;;;5036793;28;19952;-63
2023/05/04 03:27:16;;;;;;;;;;;7.00;99.90;;;;;;5054556;28;20367;-63
2023/05/04 03:29:48;;;;;;;;;;;6.90;99.90;;;;;;5060577;28;19925;-63
2023/05/04 03:32:22;;;;;;;;;;;6.80;99.90;;;;;;5068092;28;19924;-63
2023/05/04 03:34:53;;;;;;;;;;;6.80;99.90;;;;;;5046694;28;19928;-63
2023/05/04 03:37:25;;;;;;;;;;;7.20;99.90;;;;;;5061257;28;19932;-63
2023/05/04 03:39:51;;;;;;;;;;;7.20;99.90;;;;;;5052535;28;19924;-63
2023/05/04 03:42:23;;;;;;;;;;;7.10;99.90;;;;;;5047881;28;19990;-62
2023/05/04 03:44:55;;;;;;;;;;;7.00;99.90;;;;;;5053882;28;19924;-63
2023/05/04 03:47:27;;;;;;;;;;;6.90;99.90;;;;;;5036196;28;19925;-63
2023/05/04 03:49:58;;;;;;;;;;;6.90;99.90;;;;;;5049713;28;19932;-63
2023/05/04 03:52:30;;;;;;;;;;;6.80;99.90;;;;;;5070142;28;19978;-63
2023/05/04 03:55:02;;;;;;;;;;;6.80;99.90;;;;;;5066487;28;20015;-63
2023/05/04 03:57:34;;;;;;;;;;;6.70;99.90;;;;;;5065492;28;20454;-63
2023/05/04 04:00:06;;;;;;;;;;;6.70;99.90;;;;;;5062998;28;19925;-63
2023/05/04 04:02:41;;;;;;;;;;;6.70;99.90;;;;;;5064817;28;19932;-62
2023/05/04 04:05:17;;;;;;;;;;;6.70;99.90;;;;;;5037289;28;19925;-64
2023/05/04 04:07:51;;;;;;;;;;;6.70;99.90;;;;;;5050580;28;19924;-64
2023/05/04 04:10:22;;;;;;;;;;;6.70;99.90;;;;;;5040399;28;19978;-62
2023/05/04 04:12:54;;;;;;;;;;;6.70;99.90;;;;;;5039158;28;19928;-63
2023/05/04 04:15:26;;;;;;;;;;;6.70;99.90;;;;;;5063529;28;19929;-63
2023/05/04 04:17:57;;;;;;;;;;;6.70;99.90;;;;;;5043225;28;19929;-63
2023/05/04 04:20:29;;;;;;;;;;;6.60;99.90;;;;;;5065334;28;20462;-62
2023/05/04 04:23:02;;;;;;;;;;;6.70;99.90;;;;;;5067116;28;19935;-63
2023/05/04 04:25:36;;;;;;;;;;;6.60;99.90;;;;;;5065048;28;20348;-64
2023/05/04 04:28:08;;;;;;;;;;;6.60;99.90;;;;;;5062790;28;19933;-63
2023/05/04 04:30:40;;;;;;;;;;;6.60;99.90;;;;;;5055534;28;19924;-63
2023/05/04 04:33:12;;;;;;;;;;;6.60;99.90;;;;;;5040538;28;20019;-63
2023/05/04 04:35:44;;;;;;;;;;;6.60;99.90;;;;;;5065807;28;19928;-62
2023/05/04 04:38:15;;;;;;;;;;;6.60;99.90;;;;;;5041931;28;20068;-63
2023/05/04 04:40:47;;;;;;;;;;;6.60;99.90;;;;;;5053517;28;19982;-66
2023/05/04 04:43:14;;;;;;;;;;;6.70;99.90;;;;;;5048437;28;19925;-65
2023/05/04 04:45:46;;;;;;;;;;;6.70;99.90;;;;;;5061993;28;19929;-63
2023/05/04 04:48:20;;;;;;;;;;;6.70;99.90;;;;;;5068522;28;19924;-62
2023/05/04 04:50:51;;;;;;;;;;;6.70;99.90;;;;;;5033554;28;19929;-63
2023/05/04 04:53:23;;;;;;;;;;;6.80;99.90;;;;;;5065829;28;19928;-63
2023/05/04 04:55:55;;;;;;;;;;;6.80;99.90;;;;;;5072131;28;19986;-63
2023/05/04 04:58:26;;;;;;;;;;;6.80;99.90;;;;;;5045778;28;19932;-63
2023/05/04 05:00:58;;;;;;;;;;;6.80;99.90;;;;;;5064947;28;19925;-63
2023/05/04 05:03:30;;;;;;;;;;;6.90;99.90;;;;;;5049081;28;19936;-63
2023/05/04 05:05:57;;;;;;;;;;;6.90;99.90;;;;;;5061133;28;19979;-63
2023/05/04 05:08:31;;;;;;;;;;;7.00;99.90;;;;;;5067050;28;19978;-63
2023/05/04 05:11:02;;;;;;;;;;;7.00;99.90;;;;;;5065945;28;19935;-63
2023/05/04 05:13:35;;;;;;;;;;;7.00;99.90;;;;;;5063129;28;20630;-63
2023/05/04 05:16:06;;;;;;;;;;;7.10;99.90;;;;;;5060406;28;19928;-63
2023/05/04 05:18:38;;;;;;;;;;;7.10;99.90;;;;;;5058245;28;19986;-63
2023/05/04 05:21:06;;;;;;;;;;;7.00;99.90;;;;;;5054852;28;19990;-64
2023/05/04 05:23:38;;;;;;;;;;;7.00;99.90;;;;;;5072080;28;20292;-63
2023/05/04 05:26:10;;;;;;;;;;;6.90;99.90;;;;;;5067832;28;19982;-63
2023/05/04 05:28:42;;;;;;;;;;;6.90;99.90;;;;;;5060142;28;19925;-63
2023/05/04 05:31:13;;;;;;;;;;;6.90;99.90;;;;;;5049639;28;19994;-63
2023/05/04 05:33:45;;;;;;;;;;;6.90;99.90;;;;;;5065235;28;19954;-63
2023/05/04 05:36:17;;;;;;;;;;;6.90;99.90;;;;;;5065766;28;19925;-63
2023/05/04 05:38:43;;;;;;;;;;;6.90;99.90;;;;;;5068064;28;19931;-63
2023/05/04 05:41:15;;;;;;;;;;;7.00;99.90;;;;;;5069343;28;19955;-64
2023/05/04 05:43:47;;;;;;;;;;;7.00;99.90;;;;;;5053610;28;19968;-63
2023/05/04 05:46:19;;;;;;;;;;;7.10;99.90;;;;;;5043257;28;19932;-62
2023/05/04 05:48:50;;;;;;;;;;;7.10;99.90;;;;;;5064791;28;19928;-63
2023/05/04 05:51:22;;;;;;;;;;;7.20;99.90;;;;;;5066327;28;19947;-63
2023/05/04 05:53:53;;;;;;;;;;;7.30;99.90;;;;;;5069296;28;19932;-63
2023/05/04 05:56:25;;;;;;;;;;;7.40;99.90;;;;;;5068671;28;19932;-64
2023/05/04 05:58:57;;;;;;;;;;;7.50;99.90;;;;;;5044406;28;20283;-63
2023/05/04 06:01:29;;;;;;;;;;;7.60;99.90;;;;;;5066161;28;19970;-63
2023/05/04 06:04:01;;;;;;;;;;;7.60;99.90;;;;;;5049090;28;19933;-63
2023/05/04 06:06:33;;;;;;;;;;;7.70;99.90;;;;;;5067754;28;19936;-63
2023/05/04 06:09:04;;;;;;;;;;;7.80;99.90;;;;;;5049674;28;19977;-63
2023/05/04 06:11:36;;;;;;;;;;;7.90;99.90;;;;;;5060747;28;19925;-63
2023/05/04 06:14:08;;;;;;;;;;;8.00;99.90;;;;;;5063155;28;19928;-63
2023/05/04 06:16:35;;;;;;;;;;;8.10;99.90;;;;;;5066728;28;19924;-62
2023/05/04 06:19:07;;;;;;;;;;;8.10;99.90;;;;;;5067333;28;19925;-63
2023/05/04 06:21:38;;;;;;;;;;;8.20;99.90;;;;;;5034972;28;19925;-63
2023/05/04 06:24:05;;;;;;;;;;;8.30;99.90;;;;;;5067217;28;19928;-63
2023/05/04 06:26:37;;;;;;;;;;;8.40;99.90;;;;;;5051452;28;20363;-63
2023/05/04 06:29:09;;;;;;;;;;;8.50;99.90;;;;;;5055551;28;20321;-62
2023/05/04 06:31:41;;;;;;;;;;;8.60;99.90;;;;;;5036836;28;20352;-63
2023/05/04 06:34:14;;;;;;;;;;;8.70;99.90;;;;;;5055489;28;19974;-63
2023/05/04 06:36:47;;;;;;;;;;;8.80;99.90;;;;;;5069245;28;19935;-63
2023/05/04 06:39:19;;;;;;;;;;;8.90;99.90;;;;;;5065128;28;20544;-63
2023/05/04 06:41:54;;;;;;;;;;;9.00;99.90;;;;;;5061756;28;20393;-63
2023/05/04 06:44:33;;;;;;;;;;;9.10;99.90;;;;;;5036424;28;19924;-63
2023/05/04 06:47:06;;;;;;;;;;;9.20;99.90;;;;;;5042919;28;19929;-63
2023/05/04 06:49:33;;;;;;;;;;;9.40;99.90;;;;;;5050250;28;20658;-63
2023/05/04 06:52:05;;;;;;;;;;;9.50;99.90;;;;;;5040792;28;19967;-63
2023/05/04 06:54:38;;;;;;;;;;;9.70;99.90;;;;;;5056828;28;19929;-63
2023/05/04 06:57:10;;;;;;;;;;;9.80;99.90;;;;;;5057562;28;19928;-63
2023/05/04 06:59:42;;;;;;;;;;;9.90;99.90;;;;;;5041183;28;19925;-63
2023/05/04 07:02:08;;;;;;;;;;;10.00;99.90;;;;;;5058511;28;20377;-65
2023/05/04 07:04:40;;;;;;;;;;;10.10;99.90;;;;;;5047707;28;19967;-63
2023/05/04 07:07:12;;;;;;;;;;;10.20;99.90;;;;;;5062217;28;19936;-63
2023/05/04 07:09:46;;;;;;;;;;;10.30;99.90;;;;;;5051894;28;19928;-63
2023/05/04 07:12:18;;;;;;;;;;;10.40;99.90;;;;;;5045572;28;19979;-63
2023/05/04 07:14:50;;;;;;;;;;;10.50;99.90;;;;;;5066859;28;20115;-63
2023/05/04 07:17:24;;;;;;;;;;;10.60;99.90;;;;;;5053105;28;20397;-63
2023/05/04 07:19:55;;;;;;;;;;;10.70;99.90;;;;;;5042103;28;19929;-63
2023/05/04 07:22:27;;;;;;;;;;;10.80;99.90;;;;;;5056118;28;19924;-63
2023/05/04 07:24:55;;;;;;;;;;;11.00;99.90;;;;;;5052525;28;19929;-63
2023/05/04 07:27:27;;;;;;;;;;;11.10;99.90;;;;;;5060333;28;20431;-63
2023/05/04 07:30:00;;;;;;;;;;;11.20;99.90;;;;;;5061594;28;19925;-63
2023/05/04 07:32:31;;;;;;;;;;;11.40;99.90;;;;;;5059540;28;20002;-63
2023/05/04 07:35:03;;;;;;;;;;;11.50;99.90;;;;;;5057995;28;19975;-63
2023/05/04 07:37:35;;;;;;;;;;;11.60;99.90;;;;;;5047936;28;20332;-63
2023/05/04 07:40:07;;;;;;;;;;;11.70;99.90;;;;;;5060200;28;20004;-63
2023/05/04 07:42:39;;;;;;;;;;;11.90;99.90;;;;;;5050755;28;19925;-63
2023/05/04 07:45:11;;;;;;;;;;;12.00;99.90;;;;;;5067592;28;19955;-63
2023/05/04 07:47:43;;;;;;;;;;;12.10;99.90;;;;;;5039765;28;19982;-63
2023/05/04 07:50:15;;;;;;;;;;;12.20;99.90;;;;;;5060916;28;19925;-63
2023/05/04 07:52:44;;;;;;;;;;;12.40;99.90;;;;;;5061477;28;19924;-63
2023/05/04 07:55:17;;;;;;;;;;;12.50;99.90;;;;;;5063416;28;19928;-63
2023/05/04 07:57:44;;;;;;;;;;;12.60;99.90;;;;;;5064985;28;19955;-63
2023/05/04 08:00:16;;;;;;;;;;;12.70;99.90;;;;;;5057715;28;19929;-63
2023/05/04 08:02:43;;;;;;;;;;;12.80;99.90;;;;;;5053639;28;19935;-63
2023/05/04 08:05:10;;;;;;;;;;;12.90;99.90;;;;;;5052042;28;19928;-63
2023/05/04 08:07:37;;;;;;;;;;;13.10;99.90;;;;;;5058745;28;19971;-63
2023/05/04 08:10:09;;;;;;;;;;;13.30;99.90;;;;;;5039427;28;19925;-63
2023/05/04 08:12:36;;;;;;;;;;;13.40;99.90;;;;;;5058969;28;19928;-63
2023/05/04 08:15:09;;;;;;;;;;;13.60;99.90;;;;;;5060226;28;19924;-63
2023/05/04 08:17:40;;;;;;;;;;;13.70;99.90;;;;;;5061175;28;19925;-63
2023/05/04 08:20:13;;;;;;;;;;;13.80;99.90;;;;;;5057676;28;19924;-63
2023/05/04 08:22:45;;;;;;;;;;;14.00;99.90;;;;;;5056062;28;19935;-63
2023/05/04 08:25:17;;;;;;;;;;;14.10;99.90;;;;;;5056252;28;19925;-63
2023/05/04 08:27:49;;;;;;;;;;;14.30;99.90;;;;;;5066128;28;19928;-63
2023/05/04 08:30:21;;;;;;;;;;;14.40;99.90;;;;;;5040472;28;19929;-63
2023/05/04 08:32:54;;;;;;;;;;;14.60;99.90;;;;;;5056967;28;19932;-63
2023/05/04 08:35:27;;;;;;;;;;;14.70;99.90;;;;;;5042755;28;19968;-63
2023/05/04 08:38:00;;;;;;;;;;;14.90;99.90;;;;;;5052643;28;19979;-63
2023/05/04 08:40:33;;;;;;;;;;;15.00;99.90;;;;;;5050033;28;20212;-63
2023/05/04 08:43:06;;;;;;;;;;;15.10;99.90;;;;;;5052444;28;19928;-63
2023/05/04 08:45:38;;;;;;;;;;;15.20;99.90;;;;;;5042253;28;20419;-63
2023/05/04 08:48:10;;;;;;;;;;;15.30;99.90;;;;;;5069711;28;19932;-63
2023/05/04 08:50:41;;;;;;;;;;;15.40;99.90;;;;;;5070167;28;19936;-63
2023/05/04 08:53:14;;;;;;;;;;;15.50;99.90;;;;;;5053116;28;19994;-63
2023/05/04 08:55:47;;;;;;;;;;;15.60;99.90;;;;;;5069463;28;19939;-63
2023/05/04 08:58:20;;;;;;;;;;;15.80;99.90;;;;;;5048883;28;19929;-63
2023/05/04 09:00:53;;;;;;;;;;;15.80;99.90;;;;;;5066331;28;19929;-63
2023/05/04 09:03:25;;;;;;;;;;;15.90;99.90;;;;;;5068749;28;20052;-63
2023/05/04 09:05:57;;;;;;;;;;;16.00;99.90;;;;;;5062432;28;19978;-63
2023/05/04 09:08:28;;;;;;;;;;;16.10;99.90;;;;;;5050950;28;19978;-63
2023/05/04 09:11:00;;;;;;;;;;;16.20;99.90;;;;;;5059483;28;19928;-63
2023/05/04 09:13:27;;;;;;;;;;;16.30;99.90;;;;;;5048304;28;20404;-63
2023/05/04 09:15:59;;;;;;;;;;;16.40;99.90;;;;;;5054609;28;19924;-63
2023/05/04 09:18:38;;;;;;;;;;;16.50;99.90;;;;;;5040232;28;20006;-63
2023/05/04 09:21:10;;;;;;;;;;;16.60;99.90;;;;;;5068308;28;19929;-63
2023/05/04 09:23:48;;;;;;;;;;;16.70;99.90;;;;;;5054911;28;19933;-63
2023/05/04 09:26:27;;;;;;;;;;;16.90;99.90;;;;;;5049087;28;19932;-63
2023/05/04 09:29:09;;;;;;;;;;;17.00;99.90;;;;;;5060753;28;19928;-63
2023/05/04 09:31:46;;;;;;;;;;;17.00;99.90;;;;;;5065848;28;19928;-63
2023/05/04 09:34:21;;;;;;;;;;;17.10;99.90;;;;;;5056085;28;19974;-63
2023/05/04 09:37:00;;;;;;;;;;;17.20;99.90;;;;;;5055024;28;19933;-63
2023/05/04 09:39:32;;;;;;;;;;;17.30;99.90;;;;;;5058550;28;19928;-63
2023/05/04 09:42:03;;;;;;;;;;;17.40;99.90;;;;;;5065120;28;19928;-63
2023/05/04 09:44:35;;;;;;;;;;;17.40;99.90;;;;;;5067203;28;19929;-63
2023/05/04 09:47:07;;;;;;;;;;;17.50;99.90;;;;;;5065429;28;19935;-63
2023/05/04 09:49:39;;;;;;;;;;;17.50;99.90;;;;;;5066058;28;19930;-63
2023/05/04 09:52:06;;;;;;;;;;;17.60;99.90;;;;;;5066388;28;19972;-63
2023/05/04 09:54:34;;;;;;;;;;;17.70;99.90;;;;;;5040201;28;19928;-63
2023/05/04 09:57:14;;;;;;;;;;;17.80;99.90;;;;;;5056271;28;19979;-63
2023/05/04 09:59:41;;;;;;;;;;;17.90;99.90;;;;;;5048063;28;19924;-63
2023/05/04 10:02:13;;;;;;;;;;;18.00;99.90;;;;;;5057882;28;19936;-63
2023/05/04 10:04:45;;;;;;;;;;;18.10;99.90;;;;;;5036851;28;19928;-63
2023/05/04 10:07:18;;;;;;;;;;;18.20;99.90;;;;;;5041032;28;19948;-63
2023/05/04 10:09:50;;;;;;;;;;;18.30;99.90;;;;;;5062626;28;19928;-63
2023/05/04 10:12:21;;;;;;;;;;;18.40;99.90;;;;;;5047826;28;19925;-63
2023/05/04 10:14:53;;;;;;;;;;;18.40;99.90;;;;;;5050336;28;19924;-63
2023/05/04 10:17:34;;;;;;;;;;;18.50;99.90;;;;;;5070698;28;19924;-63
2023/05/04 10:20:09;;;;;;;;;;;18.60;99.90;;;;;;5058145;28;19933;-63
2023/05/04 10:22:59;;;;;;;;;;;18.60;99.90;;;;;;5054671;28;19925;-63
2023/05/04 10:25:41;;;;;;;;;;;18.70;99.90;;;;;;5062124;28;19925;-63
2023/05/04 10:28:13;;;;;;;;;;;18.80;99.90;;;;;;5069327;28;20385;-63
2023/05/04 10:30:45;;;;;;;;;;;18.80;99.90;;;;;;5064166;28;19932;-63
2023/05/04 10:33:17;;;;;;;;;;;19.00;99.90;;;;;;5063654;28;20442;-63
2023/05/04 10:35:52;;;;;;;;;;;19.10;99.90;;;;;;5064746;28;19929;-63
2023/05/04 10:38:19;;;;;;;;;;;19.20;99.90;;;;;;5066353;28;20351;-63
2023/05/04 10:40:52;;;;;;;;;;;19.30;99.90;;;;;;5054700;28;19928;-63
2023/05/04 10:43:24;;;;;;;;;;;19.40;99.90;;;;;;5036922;28;20481;-63
2023/05/04 10:45:56;;;;;;;;;;;19.40;99.90;;;;;;5061452;28;19925;-63
2023/05/04 10:48:34;;;;;;;;;;;19.50;99.90;;;;;;5060448;28;19925;-64
2023/05/04 10:51:15;;;;;;;;;;;19.60;99.90;;;;;;5050158;28;20359;-63
2023/05/04 10:53:47;;;;;;;;;;;19.60;99.90;;;;;;5059021;28;19931;-63
2023/05/04 10:56:19;;;;;;;;;;;19.70;99.90;;;;;;5051179;28;19929;-63
2023/05/04 10:58:52;;;;;;;;;;;19.70;99.90;;;;;;5062404;28;19929;-63
2023/05/04 11:01:23;;;;;;;;;;;19.80;99.90;;;;;;5043161;28;19928;-63
2023/05/04 11:03:55;;;;;;;;;;;19.90;99.90;;;;;;5065847;28;19931;-63
2023/05/04 11:06:22;;;;;;;;;;;20.00;99.90;;;;;;5036764;28;20278;-63
2023/05/04 11:08:58;;;;;;;;;;;20.20;99.90;;;;;;5035453;28;19951;-63
2023/05/04 11:11:26;;;;;;;;;;;20.30;99.90;;;;;;5057875;28;20358;-63
2023/05/04 11:13:57;;;;;;;;;;;20.30;99.90;;;;;;5046528;28;19977;-63
2023/05/04 11:16:29;;;;;;;;;;;20.40;99.90;;;;;;5065343;28;19928;-63
2023/05/04 11:19:08;;;;;;;;;;;20.50;99.90;;;;;;5065650;28;20400;-63
2023/05/04 11:21:40;;;;;;;;;;;20.60;99.90;;;;;;5062033;28;19943;-63
2023/05/04 11:24:06;;;;;;;;;;;20.70;99.90;;;;;;5052171;28;19929;-63
2023/05/04 11:26:46;;;;;;;;;;;20.70;99.90;;;;;;5061013;28;19979;-63
2023/05/04 11:29:19;;;;;;;;;;;20.70;99.90;;;;;;5067453;28;19978;-63
2023/05/04 11:31:54;;;;;;;;;;;20.80;99.90;;;;;;5063889;28;19924;-63
2023/05/04 11:34:26;;;;;;;;;;;20.80;99.90;;;;;;5053033;28;19951;-63
2023/05/04 11:36:58;;;;;;;;;;;20.80;99.90;;;;;;5055514;28;20347;-63
2023/05/04 11:39:31;;;;;;;;;;;20.90;99.90;;;;;;5058467;28;19928;-63
2023/05/04 11:42:06;;;;;;;;;;;20.90;99.90;;;;;;5047959;28;19967;-63
2023/05/04 11:44:39;;;;;;;;;;;21.00;99.90;;;;;;5062597;28;19925;-61
2023/05/04 11:47:12;;;;;;;;;;;21.10;99.90;;;;;;5061187;28;19981;-62
2023/05/04 11:49:44;;;;;;;;;;;21.20;99.90;;;;;;5056193;28;19928;-63
2023/05/04 11:52:21;;;;;;;;;;;21.30;99.90;;;;;;5067656;28;19931;-63
2023/05/04 11:54:55;;;;;;;;;;;21.40;99.90;;;;;;5060953;28;19924;-63
2023/05/04 11:57:27;;;;;;;;;;;21.40;99.90;;;;;;5052962;28;19968;-63
2023/05/04 11:59:59;;;;;;;;;;;21.40;99.90;;;;;;5040270;28;19925;-63
2023/05/04 12:02:31;;;;;;;;;;;21.50;99.90;;;;;;5067085;28;20027;-63
2023/05/04 12:05:03;;;;;;;;;;;21.50;99.90;;;;;;5069318;28;19931;-63
2023/05/04 12:07:35;;;;;;;;;;;21.50;99.90;;;;;;5068067;28;19935;-63
2023/05/04 12:10:06;;;;;;;;;;;21.60;99.90;;;;;;5069207;28;19928;-63
2023/05/04 12:12:34;;;;;;;;;;;21.70;99.90;;;;;;5069344;28;19925;-63
2023/05/04 12:15:01;;;;;;;;;;;21.80;99.90;;;;;;5067874;28;19936;-63
2023/05/04 12:17:40;;;;;;;;;;;21.80;99.90;;;;;;5057491;28;19928;-63
2023/05/04 12:20:21;;;;;;;;;;;21.90;99.30;;;;;;5069214;28;19928;-63
2023/05/04 12:22:54;;;;;;;;;;;22.00;98.40;;;;;;5050169;28;19929;-63
2023/05/04 12:25:25;;;;;;;;;;;22.00;98.20;;;;;;5043283;28;19935;-63
2023/05/04 12:27:57;;;;;;;;;;;22.00;97.90;;;;;;5059479;28;19939;-63
2023/05/04 12:30:29;;;;;;;;;;;21.90;97.40;;;;;;5064992;28;19951;-63
2023/05/04 12:32:56;;;;;;;;;;;21.90;98.50;;;;;;5054424;28;20442;-63
2023/05/04 12:35:22;;;;;;;;;;;22.00;97.80;;;;;;5062555;28;19936;-63
2023/05/04 12:37:56;;;;;;;;;;;21.90;97.10;;;;;;5053777;28;20345;-63
2023/05/04 12:40:29;;;;;;;;;;;22.10;98.10;;;;;;5073243;28;19928;-63
2023/05/04 12:43:02;;;;;;;;;;;22.20;98.80;;;;;;5056642;28;20007;-63
2023/05/04 12:45:28;;;;;;;;;;;22.40;96.80;;;;;;5051691;28;20347;-63
2023/05/04 12:48:00;;;;;;;;;;;22.60;97.40;;;;;;5063376;28;19974;-63
2023/05/04 12:50:32;;;;;;;;;;;22.70;97.80;;;;;;5067048;28;19924;-63
2023/05/04 12:53:03;;;;;;;;;;;22.90;96.10;;;;;;5065621;28;19932;-63
2023/05/04 12:55:35;;;;;;;;;;;22.90;92.70;;;;;;5068519;28;19993;-63
2023/05/04 12:58:07;;;;;;;;;;;22.90;92.90;;;;;;5063037;28;20309;-63
2023/05/04 13:00:34;;;;;;;;;;;22.80;91.90;;;;;;5065482;28;19928;-62
2023/05/04 13:03:07;;;;;;;;;;;22.70;93.60;;;;;;5068809;28;19931;-63
2023/05/04 13:05:39;;;;;;;;;;;22.70;94.90;;;;;;5068552;28;19936;-63
2023/05/04 13:08:10;;;;;;;;;;;22.70;95.10;;;;;;5067750;28;19928;-63
2023/05/04 13:10:42;;;;;;;;;;;22.80;94.50;;;;;;5065558;28;19928;-62
2023/05/04 13:13:09;;;;;;;;;;;22.90;95.20;;;;;;5068453;28;19928;-63
2023/05/04 13:15:36;;;;;;;;;;;23.10;96.10;;;;;;5072676;28;19935;-63
2023/05/04 13:18:08;;;;;;;;;;;23.20;90.20;;;;;;5054394;28;19931;-63
2023/05/04 13:20:40;;;;;;;;;;;23.00;87.60;;;;;;5038547;28;20653;-63
2023/05/04 13:23:12;;;;;;;;;;;22.70;86.80;;;;;;5067719;28;19936;-63
2023/05/04 13:25:44;;;;;;;;;;;22.50;88.50;;;;;;5067105;28;19940;-63
2023/05/04 13:28:11;;;;;;;;;;;22.60;90.50;;;;;;5047400;28;20463;-63
2023/05/04 13:30:42;;;;;;;;;;;22.70;91.60;;;;;;5067501;28;20420;-63
2023/05/04 13:33:14;;;;;;;;;;;22.90;90.50;;;;;;5070609;28;19939;-63
2023/05/04 13:35:41;;;;;;;;;;;22.90;85.60;;;;;;5072303;28;20011;-62
2023/05/04 13:38:12;;;;;;;;;;;22.70;83.50;;;;;;5068525;28;19978;-62
2023/05/04 13:40:44;;;;;;;;;;;22.70;86.90;;;;;;5067633;28;19944;-62
2023/05/04 13:43:15;;;;;;;;;;;22.90;88.70;;;;;;5063658;28;19994;-62
2023/05/04 13:45:47;;;;;;;;;;;22.90;88.40;;;;;;5069664;28;19959;-62
2023/05/04 13:48:14;;;;;;;;;;;23.00;89.00;;;;;;5058405;28;19999;-62
2023/05/04 13:50:45;;;;;;;;;;;23.10;87.60;;;;;;5073253;28;19925;-62
2023/05/04 13:53:17;;;;;;;;;;;23.00;90.10;;;;;;5062313;28;20566;-62
2023/05/04 13:55:49;;;;;;;;;;;23.10;89.20;;;;;;5057913;28;19929;-62
2023/05/04 13:58:20;;;;;;;;;;;23.00;82.30;;;;;;5066541;28;19925;-62
2023/05/04 14:00:54;;;;;;;;;;;23.20;83.70;;;;;;5053627;28;19928;-62
2023/05/04 14:03:27;;;;;;;;;;;23.50;81.40;;;;;;5051250;28;20310;-62
2023/05/04 14:05:59;;;;;;;;;;;23.90;83.70;;;;;;5062347;28;19924;-63
2023/05/04 14:08:31;;;;;;;;;;;24.10;83.30;;;;;;5054471;28;19925;-63
2023/05/04 14:11:02;;;;;;;;;;;24.40;84.50;;;;;;5063154;28;19932;-62
2023/05/04 14:13:34;;;;;;;;;;;24.50;82.30;;;;;;5060897;28;20347;-62
2023/05/04 14:16:06;;;;;;;;;;;24.50;85.80;;;;;;5055749;28;19929;-63
2023/05/04 14:18:38;;;;;;;;;;;24.60;85.70;;;;;;5060019;28;19950;-62
2023/05/04 14:21:09;;;;;;;;;;;24.70;83.00;;;;;;5050199;28;19933;-63
2023/05/04 14:23:41;;;;;;;;;;;24.80;84.10;;;;;;5067633;28;20000;-62
2023/05/04 14:26:13;;;;;;;;;;;24.90;83.00;;;;;;5063124;28;20637;-62
2023/05/04 14:28:44;;;;;;;;;;;24.90;82.00;;;;;;5063535;28;19978;-63
2023/05/04 14:31:16;;;;;;;;;;;25.10;80.90;;;;;;5059213;28;19929;-62
2023/05/04 14:33:48;;;;;;;;;;;25.20;79.80;;;;;;5066843;28;19931;-62
2023/05/04 14:36:20;;;;;;;;;;;25.30;78.50;;;;;;5036594;28;19929;-62
2023/05/04 14:38:47;;;;;;;;;;;25.60;82.00;;;;;;5057317;28;20028;-63
2023/05/04 14:41:14;;;;;;;;;;;25.90;78.30;;;;;;5058845;28;19982;-63
2023/05/04 14:43:46;;;;;;;;;;;26.10;78.00;;;;;;5051408;28;19929;-63
2023/05/04 14:46:18;;;;;;;;;;;26.30;77.30;;;;;;5060391;28;20508;-63
2023/05/04 14:48:44;;;;;;;;;;;26.60;75.00;;;;;;5058794;28;20667;-63
2023/05/04 14:51:24;;;;;;;;;;;26.80;76.60;;;;;;5046726;28;19932;-63